createdAt,value
2023-05-02T00:01:51.046Z,9.59
2023-05-02T00:04:18.841Z,9.65
2023-05-02T00:06:47.130Z,9.66
2023-05-02T00:09:15.616Z,9.63
2023-05-02T00:11:44.800Z,9.61
2023-05-02T00:14:12.432Z,9.66
2023-05-02T00:16:40.312Z,9.75
2023-05-02T00:19:08.056Z,9.79
2023-05-02T00:21:35.944Z,9.84
2023-05-02T00:24:03.607Z,9.88
2023-05-02T00:26:31.438Z,9.77
2023-05-02T00:29:01.124Z,9.77
2023-05-02T00:31:28.888Z,9.84
2023-05-02T00:33:57.120Z,9.70
2023-05-02T00:36:24.799Z,9.66
2023-05-02T00:38:52.459Z,9.68
2023-05-02T00:41:20.055Z,9.57
2023-05-02T00:43:47.596Z,9.55
2023-05-02T00:46:16.868Z,9.58
2023-05-02T00:48:45.203Z,9.40
2023-05-02T00:51:13.384Z,9.41
2023-05-02T00:53:41.443Z,9.45
2023-05-02T00:56:09.509Z,9.34
2023-05-02T00:58:39.671Z,9.40
2023-05-02T01:01:23.724Z,9.43
2023-05-02T01:04:02.208Z,9.37
2023-05-02T01:06:42.190Z,9.28
2023-05-02T01:09:22.874Z,9.25
2023-05-02T01:11:57.774Z,9.17
2023-05-02T01:14:27.819Z,9.20
2023-05-02T01:16:59.851Z,9.19
2023-05-02T01:19:39.334Z,9.16
2023-05-02T01:22:10.560Z,9.24
2023-05-02T01:24:47.552Z,9.30
2023-05-02T01:27:23.515Z,9.38
2023-05-02T01:29:54.522Z,9.51
2023-05-02T01:32:24.893Z,9.52
2023-05-02T01:34:54.129Z,9.51
2023-05-02T01:37:24.638Z,9.55
2023-05-02T01:39:53.138Z,9.55
2023-05-02T01:42:21.901Z,9.32
2023-05-02T01:44:52.702Z,9.40
2023-05-02T01:47:22.977Z,9.40
2023-05-02T01:49:51.129Z,9.17
2023-05-02T01:52:23.243Z,9.22
2023-05-02T01:54:52.971Z,9.31
2023-05-02T01:57:21.229Z,9.24
2023-05-02T01:59:51.132Z,9.23
2023-05-02T02:02:21.364Z,9.25
2023-05-02T02:04:50.179Z,9.24
2023-05-02T02:07:18.065Z,9.41
2023-05-02T02:09:45.646Z,9.38
2023-05-02T02:12:18.684Z,9.26
2023-05-02T02:14:51.982Z,9.29
2023-05-02T02:17:27.236Z,9.33
2023-05-02T02:19:57.476Z,9.45
2023-05-02T02:22:28.516Z,9.51
2023-05-02T02:24:57.401Z,9.56
2023-05-02T02:27:25.501Z,9.61
2023-05-02T02:29:53.079Z,9.58
2023-05-02T02:32:20.791Z,9.63
2023-05-02T02:34:49.727Z,9.66
2023-05-02T02:37:19.897Z,9.65
2023-05-02T02:39:57.029Z,9.68
2023-05-02T02:42:35.262Z,9.73
2023-05-02T02:45:10.807Z,9.72
2023-05-02T02:47:47.258Z,9.71
2023-05-02T02:50:24.076Z,9.71
2023-05-02T02:52:56.267Z,9.67
2023-05-02T02:55:32.745Z,9.66
2023-05-02T02:58:05.095Z,9.68
2023-05-02T03:00:34.244Z,9.68
2023-05-02T03:03:01.959Z,9.73
2023-05-02T03:05:33.969Z,9.72
2023-05-02T03:08:01.924Z,9.55
2023-05-02T03:10:29.562Z,9.64
2023-05-02T03:12:57.435Z,9.50
2023-05-02T03:16:17.724Z,9.48
2023-05-02T03:18:47.002Z,9.55
2023-05-02T03:21:16.288Z,9.60
2023-05-02T03:23:44.318Z,9.63
2023-05-02T03:26:12.069Z,9.63
2023-05-02T03:28:40.651Z,9.66
2023-05-02T03:31:08.719Z,9.65
2023-05-02T03:33:40.103Z,9.57
2023-05-02T03:36:08.591Z,9.52
2023-05-02T03:38:37.853Z,9.61
2023-05-02T03:41:09.215Z,9.53
2023-05-02T03:43:37.826Z,9.52
2023-05-02T03:46:07.781Z,9.45
2023-05-02T03:48:37.975Z,9.45
2023-05-02T03:51:09.710Z,9.48
2023-05-02T03:53:44.528Z,9.50
2023-05-02T03:56:13.436Z,9.34
2023-05-02T03:58:49.891Z,9.37
2023-05-02T04:01:21.618Z,9.39
2023-05-02T04:03:51.624Z,9.30
2023-05-02T04:06:21.740Z,9.19
2023-05-02T04:08:58.888Z,9.12
2023-05-02T04:11:31.018Z,9.20
2023-05-02T04:13:59.037Z,9.11
2023-05-02T04:16:26.815Z,9.02
2023-05-02T04:18:54.773Z,9.01
2023-05-02T04:21:23.106Z,9.12
2023-05-02T04:23:50.794Z,9.08
2023-05-02T04:26:20.197Z,9.15
2023-05-02T04:28:54.831Z,9.25
2023-05-02T04:31:22.863Z,9.28
2023-05-02T04:33:52.028Z,9.32
2023-05-02T04:36:23.944Z,9.34
2023-05-02T04:38:52.236Z,9.34
2023-05-02T04:41:21.909Z,9.43
2023-05-02T04:43:56.266Z,9.45
2023-05-02T04:46:23.968Z,9.47
2023-05-02T04:48:51.803Z,9.53
2023-05-02T04:51:20.640Z,9.55
2023-05-02T04:53:50.491Z,9.57
2023-05-02T04:56:18.420Z,9.65
2023-05-02T04:58:47.377Z,9.64
2023-05-02T05:01:15.158Z,9.72
2023-05-02T05:03:43.225Z,9.59
2023-05-02T05:06:11.149Z,9.82
2023-05-02T05:08:39.825Z,9.91
2023-05-02T05:11:08.101Z,9.89
2023-05-02T05:13:37.639Z,9.94
2023-05-02T05:16:08.406Z,10.05
2023-05-02T05:18:40.805Z,10.14
2023-05-02T05:21:11.658Z,10.23
2023-05-02T05:23:45.731Z,10.25
2023-05-02T05:26:17.802Z,10.20
2023-05-02T05:28:50.733Z,10.25
2023-05-02T05:31:22.843Z,10.27
2023-05-02T05:33:54.118Z,10.32
2023-05-02T05:36:23.861Z,10.20
2023-05-02T05:38:52.347Z,10.28
2023-05-02T05:41:21.038Z,10.36
2023-05-02T05:43:53.154Z,10.41
2023-05-02T05:46:22.817Z,10.53
2023-05-02T05:48:50.936Z,10.38
2023-05-02T05:51:19.471Z,10.52
2023-05-02T05:53:47.468Z,10.54
2023-05-02T05:56:15.636Z,10.49
2023-05-02T05:58:49.560Z,10.78
2023-05-02T06:01:17.891Z,10.85
2023-05-02T06:03:48.213Z,10.91
2023-05-02T06:06:17.164Z,10.84
2023-05-02T06:08:44.804Z,10.80
2023-05-02T06:11:12.818Z,10.89
2023-05-02T06:13:41.406Z,10.98
2023-05-02T06:16:09.661Z,10.85
2023-05-02T06:18:37.370Z,11.00
2023-05-02T06:21:07.352Z,11.19
2023-05-02T06:23:35.033Z,11.43
2023-05-02T06:26:03.687Z,11.59
2023-05-02T06:28:32.181Z,11.69
2023-05-02T06:31:01.282Z,11.50
2023-05-02T06:33:29.031Z,11.51
2023-05-02T06:35:58.172Z,11.47
2023-05-02T06:38:28.316Z,11.01
2023-05-02T06:40:56.094Z,11.58
2023-05-02T06:43:23.891Z,11.83
2023-05-02T06:45:54.477Z,11.82
2023-05-02T06:48:22.515Z,11.89
2023-05-02T06:50:50.367Z,11.87
2023-05-02T06:53:18.056Z,11.93
2023-05-02T06:55:48.577Z,11.95
2023-05-02T06:58:16.243Z,11.88
2023-05-02T07:00:44.087Z,11.80
2023-05-02T07:03:12.637Z,11.77
2023-05-02T07:05:40.558Z,11.82
2023-05-02T07:08:09.054Z,11.81
2023-05-02T07:10:37.288Z,12.11
2023-05-02T07:13:06.225Z,12.19
2023-05-02T07:15:34.220Z,12.43
2023-05-02T07:18:02.152Z,12.39
2023-05-02T07:20:30.084Z,12.40
2023-05-02T07:22:57.735Z,12.48
2023-05-02T07:25:25.500Z,12.61
2023-05-02T07:27:53.102Z,12.62
2023-05-02T07:30:22.400Z,12.75
2023-05-02T07:32:50.119Z,12.67
2023-05-02T07:35:18.633Z,12.42
2023-05-02T07:37:46.317Z,12.83
2023-05-02T07:40:14.411Z,13.26
2023-05-02T07:42:42.125Z,13.48
2023-05-02T07:45:10.535Z,13.59
2023-05-02T07:47:39.548Z,13.43
2023-05-02T07:50:08.978Z,13.46
2023-05-02T07:52:36.606Z,13.22
2023-05-02T07:55:05.111Z,13.52
2023-05-02T07:57:32.859Z,14.00
2023-05-02T08:00:00.760Z,14.47
2023-05-02T08:02:29.131Z,14.52
2023-05-02T08:04:58.259Z,14.87
2023-05-02T08:07:26.179Z,14.87
2023-05-02T08:09:53.771Z,14.37
2023-05-02T08:12:21.534Z,14.40
2023-05-02T08:14:49.162Z,14.74
2023-05-02T08:17:16.995Z,15.04
2023-05-02T08:19:44.593Z,15.47
2023-05-02T08:22:13.625Z,15.33
2023-05-02T08:24:41.225Z,15.34
2023-05-02T08:27:08.830Z,15.62
2023-05-02T08:29:36.478Z,15.47
2023-05-02T08:32:04.838Z,15.29
2023-05-02T08:34:33.761Z,15.73
2023-05-02T08:37:01.525Z,16.06
2023-05-02T08:39:34.043Z,16.14
2023-05-02T08:42:02.278Z,15.43
2023-05-02T08:44:29.933Z,16.15
2023-05-02T08:46:59.238Z,16.58
2023-05-02T08:49:28.669Z,16.70
2023-05-02T08:51:57.977Z,16.62
2023-05-02T08:54:26.980Z,16.53
2023-05-02T08:56:56.112Z,15.76
2023-05-02T08:59:23.843Z,16.02
2023-05-02T09:01:56.649Z,15.99
2023-05-02T09:04:29.026Z,15.96
2023-05-02T09:06:57.236Z,16.08
2023-05-02T09:09:25.398Z,16.02
2023-05-02T09:11:53.575Z,16.23
2023-05-02T09:14:22.522Z,15.63
2023-05-02T09:16:50.514Z,15.03
2023-05-02T09:19:26.882Z,15.44
2023-05-02T09:22:01.299Z,15.61
2023-05-02T09:24:29.448Z,15.87
2023-05-02T09:27:02.669Z,16.24
2023-05-02T09:29:36.085Z,16.59
2023-05-02T09:32:04.752Z,16.84
2023-05-02T09:34:32.726Z,17.11
2023-05-02T09:37:00.389Z,17.22
2023-05-02T09:39:29.997Z,17.43
2023-05-02T09:41:59.050Z,17.54
2023-05-02T09:44:28.053Z,17.68
2023-05-02T09:46:58.982Z,17.76
2023-05-02T09:49:41.232Z,17.94
2023-05-02T09:52:12.852Z,18.13
2023-05-02T09:54:40.726Z,18.30
2023-05-02T09:57:08.459Z,18.50
2023-05-02T09:59:36.395Z,18.98
2023-05-02T10:02:07.292Z,18.09
2023-05-02T10:04:35.542Z,17.94
2023-05-02T10:07:06.564Z,18.28
2023-05-02T10:09:37.120Z,19.04
2023-05-02T10:12:05.137Z,18.96
2023-05-02T10:14:40.236Z,18.84
2023-05-02T10:17:13.828Z,18.80
2023-05-02T10:19:49.957Z,18.89
2023-05-02T10:22:20.622Z,18.86
2023-05-02T10:24:50.190Z,18.76
2023-05-02T10:27:18.119Z,18.56
2023-05-02T10:29:47.771Z,18.54
2023-05-02T10:32:19.403Z,18.48
2023-05-02T10:34:47.526Z,18.47
2023-05-02T10:37:16.815Z,18.43
2023-05-02T10:39:44.700Z,18.39
2023-05-02T10:42:12.429Z,18.45
2023-05-02T10:44:41.710Z,18.48
2023-05-02T10:47:21.308Z,18.60
2023-05-02T10:49:53.659Z,18.71
2023-05-02T10:52:29.500Z,18.83
2023-05-02T10:55:17.973Z,19.00
2023-05-02T10:58:23.491Z,19.12
2023-05-02T11:00:51.122Z,19.31
2023-05-02T11:03:54.732Z,19.54
2023-05-02T11:06:24.504Z,19.71
2023-05-02T11:08:52.263Z,19.87
2023-05-02T11:11:42.787Z,20.15
2023-05-02T11:14:11.709Z,20.78
2023-05-02T11:17:08.383Z,21.57
2023-05-02T11:20:26.232Z,22.42
2023-05-02T11:22:59.508Z,23.32
2023-05-02T11:25:36.088Z,24.03
2023-05-02T11:28:04.534Z,23.59
2023-05-02T11:30:44.189Z,23.67
2023-05-02T11:33:16.055Z,23.09
2023-05-02T11:35:46.662Z,22.32
2023-05-02T11:38:17.485Z,21.90
2023-05-02T11:40:59.494Z,21.51
2023-05-02T11:43:31.228Z,21.23
2023-05-02T11:46:01.725Z,21.17
2023-05-02T11:48:30.943Z,21.25
2023-05-02T11:51:02.303Z,21.41
2023-05-02T11:53:32.095Z,21.46
2023-05-02T11:56:01.535Z,21.35
2023-05-02T11:58:32.840Z,21.29
2023-05-02T12:01:12.364Z,21.11
2023-05-02T12:03:40.789Z,21.18
2023-05-02T12:06:13.247Z,21.39
2023-05-02T12:08:44.223Z,21.53
2023-05-02T12:11:14.532Z,21.73
2023-05-02T12:13:47.581Z,21.50
2023-05-02T12:16:15.617Z,20.55
2023-05-02T12:18:43.751Z,20.65
2023-05-02T12:21:11.794Z,20.84
2023-05-02T12:23:42.894Z,20.99
2023-05-02T12:26:22.052Z,21.50
2023-05-02T12:28:50.960Z,21.74
2023-05-02T12:31:19.109Z,22.20
2023-05-02T12:33:48.747Z,22.32
2023-05-02T12:36:16.485Z,22.28
2023-05-02T12:38:52.444Z,21.85
2023-05-02T12:41:20.965Z,21.16
2023-05-02T12:43:51.213Z,20.65
2023-05-02T12:46:18.881Z,19.69
2023-05-02T12:48:46.813Z,19.11
2023-05-02T12:51:24.624Z,19.88
2023-05-02T12:53:53.521Z,20.08
2023-05-02T12:56:22.073Z,21.29
2023-05-02T12:58:50.794Z,22.24
2023-05-02T13:01:18.430Z,22.98
2023-05-02T13:03:46.161Z,23.37
2023-05-02T13:06:13.937Z,23.15
2023-05-02T13:08:41.497Z,22.93
2023-05-02T13:11:10.444Z,22.45
2023-05-02T13:13:38.023Z,22.41
2023-05-02T13:16:06.239Z,22.48
2023-05-02T13:18:33.974Z,22.35
2023-05-02T13:21:01.604Z,22.36
2023-05-02T13:23:29.191Z,22.25
2023-05-02T13:25:56.739Z,22.02
2023-05-02T13:28:25.881Z,22.03
2023-05-02T13:30:53.596Z,21.90
2023-05-02T13:33:21.240Z,21.68
2023-05-02T13:35:48.813Z,21.55
2023-05-02T13:38:16.391Z,21.41
2023-05-02T13:40:43.966Z,21.29
2023-05-02T13:43:11.531Z,21.19
2023-05-02T13:45:40.847Z,20.96
2023-05-02T13:48:08.485Z,20.77
2023-05-02T13:50:37.277Z,20.53
2023-05-02T13:53:04.996Z,20.32
2023-05-02T13:55:32.600Z,20.16
2023-05-02T13:58:00.212Z,19.82
2023-05-02T14:00:29.145Z,19.73
2023-05-02T14:02:58.216Z,19.62
2023-05-02T14:05:26.114Z,19.46
2023-05-02T14:07:53.677Z,19.33
2023-05-02T14:10:21.452Z,19.22
2023-05-02T14:12:49.232Z,19.13
2023-05-02T14:15:17.341Z,19.05
2023-05-02T14:17:44.928Z,18.97
2023-05-02T14:20:14.165Z,18.94
2023-05-02T14:22:41.828Z,18.86
2023-05-02T14:25:09.703Z,18.88
2023-05-02T14:27:37.240Z,18.92
2023-05-02T14:30:05.865Z,18.87
2023-05-02T14:32:33.898Z,18.82
2023-05-02T14:35:01.853Z,18.81
2023-05-02T14:37:31.085Z,18.84
2023-05-02T14:39:59.443Z,18.79
2023-05-02T14:42:27.289Z,18.74
2023-05-02T14:44:57.501Z,18.67
2023-05-02T14:47:30.299Z,18.50
2023-05-02T14:49:57.919Z,18.40
2023-05-02T14:52:25.564Z,18.29
2023-05-02T14:54:54.605Z,18.10
2023-05-02T14:57:22.651Z,17.48
2023-05-02T14:59:50.242Z,16.99
2023-05-02T15:02:17.936Z,16.65
2023-05-02T15:04:45.537Z,16.53
2023-05-02T15:07:13.520Z,15.91
2023-05-02T15:09:41.223Z,15.80
2023-05-02T15:12:10.410Z,15.85
2023-05-02T15:14:37.966Z,15.66
2023-05-02T15:17:05.748Z,15.42
2023-05-02T15:19:33.395Z,15.38
2023-05-02T15:22:01.648Z,15.15
2023-05-02T15:24:29.240Z,15.06
2023-05-02T15:26:57.066Z,15.34
2023-05-02T15:29:26.046Z,15.51
2023-05-02T15:31:54.672Z,15.49
2023-05-02T15:34:22.347Z,15.56
2023-05-02T15:36:50.084Z,15.57
2023-05-02T15:39:19.117Z,15.61
2023-05-02T15:41:47.967Z,15.84
2023-05-02T15:44:15.583Z,16.06
2023-05-02T15:46:47.253Z,16.21
2023-05-02T15:49:15.034Z,16.30
2023-05-02T15:51:42.744Z,16.17
2023-05-02T15:54:10.322Z,15.83
2023-05-02T15:56:38.669Z,15.59
2023-05-02T15:59:06.510Z,15.37
2023-05-02T16:01:34.112Z,15.24
2023-05-02T16:04:03.083Z,15.28
2023-05-02T16:06:31.122Z,15.34
2023-05-02T16:08:58.730Z,15.43
2023-05-02T16:11:26.602Z,15.53
2023-05-02T16:13:54.173Z,15.47
2023-05-02T16:16:21.734Z,15.42
2023-05-02T16:18:49.576Z,15.42
2023-05-02T16:21:18.621Z,15.48
2023-05-02T16:23:46.445Z,15.44
2023-05-02T16:26:14.019Z,15.33
2023-05-02T16:28:41.705Z,15.17
2023-05-02T16:31:11.168Z,15.01
2023-05-02T16:33:39.253Z,14.96
2023-05-02T16:36:07.800Z,14.65
2023-05-02T16:38:37.311Z,14.41
2023-05-02T16:41:06.799Z,14.47
2023-05-02T16:43:34.709Z,13.47
2023-05-02T16:46:03.282Z,13.27
2023-05-02T16:48:31.362Z,13.22
2023-05-02T16:51:01.093Z,13.36
2023-05-02T16:53:30.512Z,13.19
2023-05-02T16:55:59.762Z,13.36
2023-05-02T16:58:29.274Z,13.37
2023-05-02T17:00:57.216Z,13.38
2023-05-02T17:03:24.978Z,13.40
2023-05-02T17:05:52.564Z,13.49
2023-05-02T17:08:20.834Z,13.55
2023-05-02T17:10:52.508Z,13.58
2023-05-02T17:13:21.557Z,13.56
2023-05-02T17:15:49.307Z,13.51
2023-05-02T17:18:17.187Z,13.46
2023-05-02T17:20:45.944Z,13.48
2023-05-02T17:23:14.651Z,13.45
2023-05-02T17:25:42.620Z,13.34
2023-05-02T17:28:10.546Z,13.39
2023-05-02T17:30:39.797Z,13.26
2023-05-02T17:33:07.499Z,13.32
2023-05-02T17:35:35.341Z,13.34
2023-05-02T17:38:03.147Z,13.40
2023-05-02T17:40:30.797Z,13.36
2023-05-02T17:42:59.231Z,13.30
2023-05-02T17:45:29.020Z,13.28
2023-05-02T17:47:58.091Z,13.07
2023-05-02T17:50:26.119Z,13.02
2023-05-02T17:52:54.100Z,13.03
2023-05-02T17:55:21.677Z,13.04
2023-05-02T17:57:49.419Z,13.05
2023-05-02T18:00:17.336Z,12.95
2023-05-02T18:02:45.542Z,12.93
2023-05-02T18:05:14.609Z,12.91
2023-05-02T18:07:42.426Z,12.89
2023-05-02T18:10:10.144Z,12.81
2023-05-02T18:12:37.828Z,12.86
2023-05-02T18:15:06.569Z,12.85
2023-05-02T18:17:34.460Z,12.82
2023-05-02T18:20:04.207Z,12.77
2023-05-02T18:22:34.361Z,12.77
2023-05-02T18:25:02.333Z,12.74
2023-05-02T18:27:30.497Z,12.69
2023-05-02T18:29:58.332Z,12.63
2023-05-02T18:32:26.867Z,12.59
2023-05-02T18:34:54.493Z,12.55
2023-05-02T18:37:27.702Z,12.42
2023-05-02T18:39:56.858Z,12.48
2023-05-02T18:42:24.565Z,12.45
2023-05-02T18:44:52.983Z,12.38
2023-05-02T18:47:21.383Z,12.35
2023-05-02T18:49:50.483Z,12.34
2023-05-02T18:52:18.058Z,12.33
2023-05-02T18:54:45.736Z,12.27
2023-05-02T18:57:14.656Z,12.22
2023-05-02T18:59:42.513Z,12.17
2023-05-02T19:02:10.336Z,12.07
2023-05-02T19:04:38.137Z,12.02
2023-05-02T19:07:05.699Z,12.00
2023-05-02T19:09:33.435Z,11.93
2023-05-02T19:12:01.018Z,11.88
2023-05-02T19:14:30.829Z,11.83
2023-05-02T19:16:58.383Z,11.81
2023-05-02T19:19:26.229Z,11.79
2023-05-02T19:21:54.086Z,11.75
2023-05-02T19:24:22.003Z,11.51
2023-05-02T19:26:49.564Z,11.52
2023-05-02T19:29:17.163Z,11.53
2023-05-02T19:31:46.320Z,11.55
2023-05-02T19:34:14.133Z,11.53
2023-05-02T19:36:41.700Z,11.57
2023-05-02T19:39:10.655Z,11.56
2023-05-02T19:41:39.949Z,11.50
2023-05-02T19:44:07.704Z,11.45
2023-05-02T19:46:35.285Z,11.38
2023-05-02T19:49:04.258Z,11.45
2023-05-02T19:51:34.082Z,11.51
2023-05-02T19:54:01.887Z,11.53
2023-05-02T19:56:29.949Z,11.51
2023-05-02T19:58:58.616Z,11.39
2023-05-02T20:01:26.698Z,11.30
2023-05-02T20:03:54.872Z,11.26
2023-05-02T20:06:24.469Z,11.22
2023-05-02T20:08:53.048Z,11.15
2023-05-02T20:11:21.362Z,11.09
2023-05-02T20:13:49.314Z,11.08
2023-05-02T20:16:16.974Z,11.06
2023-05-02T20:18:44.736Z,11.04
2023-05-02T20:21:12.374Z,11.04
2023-05-02T20:23:43.296Z,11.01
2023-05-02T20:26:11.096Z,11.01
2023-05-02T20:28:38.729Z,10.92
2023-05-02T20:31:06.980Z,10.91
2023-05-02T20:33:44.694Z,10.84
2023-05-02T20:36:14.999Z,10.61
2023-05-02T20:38:44.747Z,10.49
2023-05-02T20:41:13.843Z,10.44
2023-05-02T20:43:44.615Z,10.46
2023-05-02T20:46:13.883Z,10.47
2023-05-02T20:48:41.742Z,10.45
2023-05-02T20:51:10.004Z,10.42
2023-05-02T20:53:38.145Z,10.41
2023-05-02T20:56:07.897Z,10.38
2023-05-02T20:58:35.482Z,10.43
2023-05-02T21:01:03.315Z,10.35
2023-05-02T21:03:31.988Z,10.33
2023-05-02T21:06:00.404Z,10.28
2023-05-02T21:08:28.148Z,10.16
2023-05-02T21:10:56.113Z,10.12
2023-05-02T21:13:25.097Z,9.82
2023-05-02T21:15:52.741Z,9.68
2023-05-02T21:18:21.548Z,9.61
2023-05-02T21:20:49.580Z,9.55
2023-05-02T21:23:17.164Z,9.51
2023-05-02T21:25:44.895Z,9.48
2023-05-02T21:28:12.595Z,9.52
2023-05-02T21:30:41.698Z,9.59
2023-05-02T21:33:09.480Z,9.64
2023-05-02T21:35:37.275Z,9.62
2023-05-02T21:38:04.948Z,9.60
2023-05-02T21:40:34.858Z,9.56
2023-05-02T21:43:02.470Z,9.55
2023-05-02T21:45:30.569Z,9.56
2023-05-02T21:48:01.246Z,9.58
2023-05-02T21:50:29.355Z,9.55
2023-05-02T21:52:56.974Z,9.53
2023-05-02T21:55:24.660Z,9.56
2023-05-02T21:57:52.283Z,9.57
2023-05-02T22:00:20.286Z,9.64
2023-05-02T22:02:48.079Z,9.65
2023-05-02T22:05:17.379Z,9.62
2023-05-02T22:07:44.972Z,9.53
2023-05-02T22:10:13.217Z,9.53
2023-05-02T22:12:40.951Z,9.56
2023-05-02T22:15:10.422Z,9.56
2023-05-02T22:17:42.423Z,9.56
2023-05-02T22:20:13.227Z,9.44
2023-05-02T22:22:42.278Z,9.40
2023-05-02T22:25:10.732Z,9.32
2023-05-02T22:27:38.368Z,9.21
2023-05-02T22:30:07.579Z,9.13
2023-05-02T22:32:35.400Z,9.05
2023-05-02T22:35:03.364Z,8.95
2023-05-02T22:37:31.010Z,8.68
2023-05-02T22:40:00.495Z,8.49
2023-05-02T22:42:28.280Z,8.41
2023-05-02T22:44:55.976Z,8.31
2023-05-02T22:47:25.116Z,8.26
2023-05-02T22:49:54.416Z,8.30
2023-05-02T22:52:22.494Z,8.30
2023-05-02T22:54:50.640Z,8.22
2023-05-02T22:57:20.108Z,8.17
2023-05-02T22:59:47.798Z,8.14
2023-05-02T23:02:15.617Z,8.08
2023-05-02T23:04:43.347Z,7.99
2023-05-02T23:07:11.829Z,7.95
2023-05-02T23:09:39.570Z,7.93
2023-05-02T23:12:07.254Z,7.95
2023-05-02T23:14:36.339Z,7.96
2023-05-02T23:17:04.016Z,7.92
2023-05-02T23:19:31.982Z,7.93
2023-05-02T23:22:00.032Z,7.96
2023-05-02T23:24:27.854Z,7.96
2023-05-02T23:26:55.648Z,7.75
2023-05-02T23:29:23.541Z,7.74
2023-05-02T23:31:54.534Z,7.56
2023-05-02T23:34:23.091Z,7.53
2023-05-02T23:36:52.911Z,7.48
2023-05-02T23:39:20.963Z,7.48
2023-05-02T23:41:49.082Z,7.41
2023-05-02T23:44:16.715Z,7.50
2023-05-02T23:46:44.635Z,7.62
2023-05-02T23:49:13.626Z,7.64
2023-05-02T23:51:41.682Z,7.65
2023-05-02T23:54:09.341Z,7.72
2023-05-02T23:56:37.196Z,7.57
2023-05-02T23:59:04.878Z,7.61
